Time;durP1;ratioP1;P1;durP2;ratioP2;P2;SDS_P1;SDS_P2;PMS_P1;PMS_P2;Temp;Humidity;BMP_temperature;BMP_pressure;BME280_temperature;BME280_humidity;BME280_pressure;Samples;Min_cycle;Max_cycle;Signal;HPM_P1;HPM_P2
2021/12/13 00:01:41;;;;;;;7.05;3.60;;;5.10;99.90;;;;;;5133995;27;20023;-75
2021/12/13 00:04:16;;;;;;;8.88;3.92;;;5.10;99.90;;;;;;5132874;27;20015;-74
2021/12/13 00:06:47;;;;;;;7.22;4.07;;;5.10;99.90;;;;;;5133633;27;20024;-74
2021/12/13 00:09:22;;;;;;;7.05;3.90;;;5.10;99.90;;;;;;5133207;27;20414;-74
2021/12/13 00:11:54;;;;;;;8.20;4.18;;;5.10;99.90;;;;;;5133903;27;20063;-74
2021/12/13 00:14:28;;;;;;;5.85;3.78;;;5.10;99.90;;;;;;5133704;27;20041;-74
2021/12/13 00:17:01;;;;;;;7.35;3.92;;;5.00;99.90;;;;;;5133329;27;20039;-74
2021/12/13 00:19:34;;;;;;;5.68;3.60;;;5.10;99.90;;;;;;5133829;27;20035;-74
2021/12/13 00:22:08;;;;;;;7.95;4.05;;;5.00;99.90;;;;;;5131906;27;20034;-74
2021/12/13 00:24:39;;;;;;;6.88;4.10;;;5.00;99.90;;;;;;5133672;27;20035;-75
2021/12/13 00:27:20;;;;;;;6.80;4.25;;;5.00;99.90;;;;;;5132914;27;20071;-74
2021/12/13 00:29:55;;;;;;;10.57;4.20;;;5.00;99.90;;;;;;5133643;27;20015;-74
2021/12/13 00:32:52;;;;;;;10.15;4.75;;;5.00;99.90;;;;;;5133246;27;20094;-74
2021/12/13 00:35:21;;;;;;;6.60;4.03;;;5.00;99.90;;;;;;5132795;27;20023;-74
2021/12/13 00:37:57;;;;;;;10.77;4.63;;;5.00;99.90;;;;;;5133304;27;20027;-74
2021/12/13 00:40:31;;;;;;;8.57;4.38;;;5.00;99.90;;;;;;5133373;27;20079;-74
2021/12/13 00:43:08;;;;;;;7.13;4.22;;;5.00;99.90;;;;;;5132538;27;20033;-74
2021/12/13 00:45:37;;;;;;;6.85;4.90;;;5.00;99.90;;;;;;5133234;28;20072;-75
2021/12/13 00:48:06;;;;;;;7.53;4.45;;;5.00;99.90;;;;;;5132052;28;20500;-75
2021/12/13 00:50:46;;;;;;;7.78;4.40;;;4.90;99.90;;;;;;5133244;28;20026;-75
2021/12/13 00:53:17;;;;;;;12.13;4.45;;;4.90;99.90;;;;;;5132703;28;20110;-75
2021/12/13 00:55:45;;;;;;;9.60;4.93;;;4.90;99.90;;;;;;5132934;28;20059;-74
2021/12/13 00:58:15;;;;;;;9.68;4.93;;;4.90;99.90;;;;;;5132710;28;20030;-75
2021/12/13 01:00:46;;;;;;;10.55;4.85;;;4.90;99.90;;;;;;5133566;28;20031;-75
2021/12/13 01:03:33;;;;;;;9.75;5.68;;;4.90;99.90;;;;;;5133028;28;20055;-74
2021/12/13 01:06:37;;;;;;;8.75;5.50;;;4.90;99.90;;;;;;5132240;28;20028;-74
2021/12/13 01:09:40;;;;;;;9.98;5.45;;;4.80;99.90;;;;;;5132468;27;20034;-74
2021/12/13 01:12:10;;;;;;;10.52;5.43;;;4.80;99.90;;;;;;5132404;28;20087;-75
2021/12/13 01:14:38;;;;;;;9.88;5.57;;;4.80;99.90;;;;;;5133115;27;20023;-75
2021/12/13 01:18:04;;;;;;;16.83;7.15;;;4.80;99.90;;;;;;5132525;27;20031;-74
2021/12/13 01:20:56;;;;;;;18.92;6.97;;;4.80;99.90;;;;;;5132865;27;20027;-74
2021/12/13 01:23:39;;;;;;;10.15;6.10;;;4.70;99.90;;;;;;5133234;27;20027;-73
2021/12/13 01:28:51;;;;;;;9.95;6.30;;;4.70;99.90;;;;;;5133060;27;20111;-74
2021/12/13 01:31:19;;;;;;;10.85;6.00;;;4.70;99.90;;;;;;5132143;27;20519;-75
2021/12/13 01:33:46;;;;;;;11.13;5.82;;;4.70;99.90;;;;;;5134811;27;20031;-75
2021/12/13 01:36:21;;;;;;;11.15;6.55;;;4.70;99.90;;;;;;5135783;27;20482;-73
2021/12/13 01:38:55;;;;;;;15.32;6.70;;;4.60;99.90;;;;;;5136596;27;20488;-73
2021/12/13 01:41:29;;;;;;;13.88;6.82;;;4.60;99.90;;;;;;5136835;27;20098;-73
2021/12/13 01:44:08;;;;;;;10.23;6.97;;;4.60;99.90;;;;;;5136578;27;20035;-73
2021/12/13 01:46:42;;;;;;;12.43;7.55;;;4.60;99.90;;;;;;5136040;27;20427;-74
2021/12/13 01:49:09;;;;;;;17.70;7.38;;;4.60;99.90;;;;;;5135844;27;20467;-74
2021/12/13 01:51:35;;;;;;;16.25;7.22;;;4.60;99.90;;;;;;5136492;27;20023;-74
2021/12/13 01:54:18;;;;;;;14.57;7.57;;;4.60;99.90;;;;;;5135858;27;20079;-73
2021/12/13 01:57:09;;;;;;;11.77;6.70;;;4.60;99.90;;;;;;5136119;27;20411;-73
2021/12/13 02:02:17;;;;;;;10.50;7.45;;;4.60;99.90;;;;;;5135297;27;20047;-74
2021/12/13 02:04:46;;;;;;;12.65;7.80;;;4.60;99.90;;;;;;5135601;27;20019;-74
2021/12/13 02:07:13;;;;;;;15.45;8.13;;;4.60;99.90;;;;;;5135228;27;20035;-73
2021/12/13 02:09:45;;;;;;;15.60;7.68;;;4.60;99.90;;;;;;5136143;27;20419;-74
2021/12/13 02:12:15;;;;;;;16.90;8.43;;;4.60;99.90;;;;;;5135527;27;20065;-74
2021/12/13 02:14:49;;;;;;;14.30;7.75;;;4.60;99.90;;;;;;5136139;27;20027;-74
2021/12/13 02:17:20;;;;;;;12.63;7.35;;;4.60;99.90;;;;;;5135629;27;20067;-74
2021/12/13 02:19:52;;;;;;;14.05;8.20;;;4.60;99.90;;;;;;5135966;27;20035;-73
2021/12/13 02:22:20;;;;;;;13.02;7.90;;;4.60;99.90;;;;;;5135270;27;20030;-74
2021/12/13 02:24:49;;;;;;;14.63;8.10;;;4.60;99.90;;;;;;5135904;27;20058;-74
2021/12/13 02:27:21;;;;;;;17.40;8.10;;;4.60;99.90;;;;;;5135117;27;20083;-74
2021/12/13 02:29:48;;;;;;;22.50;8.65;;;4.60;99.90;;;;;;5135610;27;20057;-74
2021/12/13 02:32:14;;;;;;;16.08;8.52;;;4.60;99.90;;;;;;5134757;27;20031;-74
2021/12/13 02:34:42;;;;;;;19.67;8.68;;;4.60;99.90;;;;;;5135636;27;20375;-73
2021/12/13 02:37:10;;;;;;;16.30;8.32;;;4.60;99.90;;;;;;5134749;27;20031;-73
2021/12/13 02:39:46;;;;;;;19.10;8.13;;;4.50;99.90;;;;;;5117550;27;20023;-74
2021/12/13 02:42:14;;;;;;;15.20;9.20;;;4.60;99.90;;;;;;5134988;27;20149;-75
2021/12/13 02:44:51;;;;;;;19.27;8.15;;;4.60;99.90;;;;;;5135181;27;20019;-74
2021/12/13 02:47:33;;;;;;;14.77;8.40;;;4.60;99.90;;;;;;5134234;27;20055;-73
2021/12/13 02:50:00;;;;;;;17.23;8.25;;;4.60;99.90;;;;;;5134625;27;20051;-73
2021/12/13 02:52:27;;;;;;;17.05;8.45;;;4.60;99.90;;;;;;5135070;27;20027;-74
2021/12/13 02:54:57;;;;;;;15.73;9.07;;;4.60;99.90;;;;;;5135265;27;20034;-74
2021/12/13 02:57:29;;;;;;;12.95;9.25;;;4.60;99.90;;;;;;5135284;27;20036;-74
2021/12/13 03:00:07;;;;;;;15.13;8.77;;;4.60;99.90;;;;;;5135196;27;20027;-75
2021/12/13 03:02:42;;;;;;;16.55;9.05;;;4.60;99.90;;;;;;5135143;27;20027;-74
2021/12/13 03:05:18;;;;;;;16.00;8.38;;;4.60;99.90;;;;;;5134456;27;20019;-75
2021/12/13 03:07:48;;;;;;;16.65;8.80;;;4.60;99.90;;;;;;5134559;27;20038;-74
2021/12/13 03:10:19;;;;;;;12.77;7.95;;;4.60;99.90;;;;;;5134444;27;20030;-74
2021/12/13 03:12:45;;;;;;;16.40;8.73;;;4.60;99.90;;;;;;5134619;27;20126;-74
2021/12/13 03:15:17;;;;;;;13.65;8.05;;;4.60;99.90;;;;;;5134250;27;20098;-74
2021/12/13 03:18:11;;;;;;;14.25;8.80;;;4.60;99.90;;;;;;5134983;27;20032;-74
2021/12/13 03:21:02;;;;;;;13.82;8.07;;;4.60;99.90;;;;;;5134737;27;20038;-73
2021/12/13 03:23:51;;;;;;;9.88;7.65;;;4.60;99.90;;;;;;5134751;27;20027;-74
2021/12/13 03:26:55;;;;;;;12.50;7.75;;;4.70;99.90;;;;;;5134098;27;20027;-74
2021/12/13 03:29:26;;;;;;;11.43;8.35;;;4.70;99.90;;;;;;5133994;27;20027;-74
2021/12/13 03:31:58;;;;;;;13.48;8.63;;;4.70;99.90;;;;;;5134504;27;20352;-75
2021/12/13 03:34:32;;;;;;;11.70;8.25;;;4.70;99.90;;;;;;5134489;27;20384;-73
2021/12/13 03:37:03;;;;;;;15.75;9.00;;;4.70;99.90;;;;;;5133896;27;20032;-73
2021/12/13 03:39:29;;;;;;;18.45;9.07;;;4.70;99.90;;;;;;5134488;27;20027;-74
2021/12/13 03:41:59;;;;;;;14.98;8.52;;;4.70;99.90;;;;;;5134237;27;20455;-73
2021/12/13 03:44:36;;;;;;;12.82;8.30;;;4.70;99.90;;;;;;5134409;27;20023;-73
2021/12/13 03:47:12;;;;;;;12.18;8.85;;;4.70;99.90;;;;;;5133498;27;20138;-72
2021/12/13 03:49:42;;;;;;;14.40;8.73;;;4.80;99.90;;;;;;5134197;27;20115;-73
2021/12/13 03:52:11;;;;;;;12.88;7.97;;;4.80;99.90;;;;;;5133629;27;20108;-73
2021/12/13 03:54:40;;;;;;;13.98;8.05;;;4.80;99.90;;;;;;5134188;27;20022;-73
2021/12/13 03:57:08;;;;;;;13.32;8.30;;;4.80;99.90;;;;;;5132966;27;20486;-73
2021/12/13 03:59:37;;;;;;;12.95;8.57;;;4.80;99.90;;;;;;5133993;27;20032;-73
2021/12/13 04:02:09;;;;;;;12.70;8.30;;;4.80;99.90;;;;;;5133418;27;20452;-73
2021/12/13 04:04:42;;;;;;;13.20;7.50;;;4.80;99.90;;;;;;5134136;27;20291;-73
2021/12/13 04:07:16;;;;;;;10.55;7.72;;;4.80;99.90;;;;;;5133010;27;20379;-73
2021/12/13 04:09:44;;;;;;;13.45;8.23;;;4.80;99.90;;;;;;5133804;27;20091;-73
2021/12/13 04:12:14;;;;;;;14.02;9.02;;;4.80;99.90;;;;;;5133178;27;20092;-73
2021/12/13 04:14:50;;;;;;;15.20;8.68;;;4.80;99.90;;;;;;5133835;27;20382;-73
2021/12/13 04:17:42;;;;;;;14.15;9.43;;;4.80;99.90;;;;;;5133269;27;20087;-74
2021/12/13 04:20:36;;;;;;;18.17;9.45;;;4.80;99.90;;;;;;5133141;27;20031;-73
2021/12/13 04:23:11;;;;;;;14.68;9.00;;;4.80;99.90;;;;;;5130094;27;20499;-73
2021/12/13 04:25:41;;;;;;;17.70;8.80;;;4.80;99.90;;;;;;5133731;27;20034;-74
2021/12/13 04:28:33;;;;;;;15.15;8.75;;;4.80;99.90;;;;;;5132072;27;20204;-73
2021/12/13 04:31:03;;;;;;;18.65;9.48;;;4.80;99.90;;;;;;5133586;27;20031;-73
2021/12/13 04:33:38;;;;;;;17.90;9.68;;;4.80;99.90;;;;;;5133536;27;20030;-73
2021/12/13 04:36:15;;;;;;;17.52;9.60;;;4.80;99.90;;;;;;5132837;27;20020;-73
2021/12/13 04:38:50;;;;;;;13.35;8.55;;;4.80;99.90;;;;;;5133325;27;20463;-75
2021/12/13 04:41:23;;;;;;;14.90;9.52;;;4.80;99.90;;;;;;5132835;27;20030;-73
2021/12/13 04:43:58;;;;;;;19.10;9.20;;;4.80;99.90;;;;;;5132938;27;20356;-73
2021/12/13 04:46:28;;;;;;;15.05;9.43;;;4.80;99.90;;;;;;5132434;28;20058;-73
2021/12/13 04:48:58;;;;;;;16.83;9.48;;;4.80;99.90;;;;;;5133379;28;20513;-73
2021/12/13 04:51:27;;;;;;;16.55;10.02;;;4.80;99.90;;;;;;5132870;28;20094;-73
2021/12/13 04:53:58;;;;;;;17.93;10.50;;;4.80;99.90;;;;;;5133054;28;20035;-73
2021/12/13 04:56:25;;;;;;;;;;;4.80;99.90;;;;;;5133050;28;20257;-73
2021/12/13 04:58:55;;;;;;;17.38;9.20;;;4.80;99.90;;;;;;5133136;28;19947;-72
2021/12/13 05:01:21;;;;;;;;;;;4.80;99.90;;;;;;5132734;28;20467;-73
2021/12/13 05:03:56;;;;;;;17.35;9.65;;;4.80;99.90;;;;;;5133175;28;20384;-73
2021/12/13 05:06:28;;;;;;;17.98;9.40;;;4.80;99.90;;;;;;5132273;28;20247;-73
2021/12/13 05:08:58;;;;;;;16.05;9.10;;;4.90;99.90;;;;;;5135244;27;20023;-73
2021/12/13 05:11:31;;;;;;;14.25;8.35;;;4.90;99.90;;;;;;5136761;27;20102;-73
2021/12/13 05:13:59;;;;;;;13.75;9.13;;;4.90;99.90;;;;;;5137306;27;20380;-73
2021/12/13 05:16:51;;;;;;;13.98;9.18;;;4.90;99.90;;;;;;5136275;27;20076;-73
2021/12/13 05:19:29;;;;;;;16.95;8.95;;;4.90;99.90;;;;;;5136667;27;20019;-73
2021/12/13 05:21:58;;;;;;;17.70;9.13;;;4.90;99.90;;;;;;5137151;27;20061;-73
2021/12/13 05:24:27;;;;;;;12.77;7.93;;;5.00;99.90;;;;;;5136329;27;20110;-76
2021/12/13 05:26:57;;;;;;;12.13;8.20;;;5.00;99.90;;;;;;5135482;27;20387;-75
2021/12/13 05:29:34;;;;;;;14.18;8.02;;;5.00;99.90;;;;;;5136363;27;20549;-76
2021/12/13 05:32:14;;;;;;;11.23;7.10;;;5.00;99.90;;;;;;5136579;27;20385;-75
2021/12/13 05:34:48;;;;;;;12.10;7.50;;;5.00;99.90;;;;;;5136464;27;20386;-73
2021/12/13 05:37:16;;;;;;;12.25;7.57;;;5.10;99.90;;;;;;5136005;27;20080;-73
2021/12/13 05:39:57;;;;;;;14.73;8.40;;;5.00;99.90;;;;;;5136858;27;20027;-73
2021/12/13 05:42:44;;;;;;;13.80;7.80;;;5.10;99.90;;;;;;5135723;27;20483;-73
2021/12/13 05:45:20;;;;;;;17.38;8.90;;;5.10;99.90;;;;;;5135953;27;20023;-73
2021/12/13 05:48:08;;;;;;;15.35;7.60;;;5.10;99.90;;;;;;5136673;27;20134;-74
2021/12/13 05:50:39;;;;;;;10.57;7.72;;;5.10;99.90;;;;;;5136442;27;20490;-74
2021/12/13 05:53:12;;;;;;;15.57;8.20;;;5.10;99.90;;;;;;5135896;27;20456;-73
2021/12/13 05:56:03;;;;;;;15.35;9.57;;;5.10;99.90;;;;;;5136337;27;20042;-74
2021/12/13 05:58:33;;;;;;;15.38;9.07;;;5.10;99.90;;;;;;5136326;27;20106;-75
2021/12/13 06:01:00;;;;;;;;;;;5.10;99.90;;;;;;5136853;27;20015;-74
2021/12/13 06:03:33;;;;;;;18.42;9.73;;;5.10;99.90;;;;;;5135699;27;19928;-74
2021/12/13 06:06:06;;;;;;;14.55;8.73;;;5.10;99.90;;;;;;5136409;27;20027;-75
2021/12/13 06:08:42;;;;;;;18.15;9.18;;;5.10;99.90;;;;;;5136093;27;20456;-75
2021/12/13 06:11:11;;;;;;;14.07;8.90;;;5.10;99.90;;;;;;5135171;27;20395;-74
2021/12/13 06:13:42;;;;;;;18.48;9.40;;;5.10;99.90;;;;;;5135925;27;20027;-75
2021/12/13 06:16:17;;;;;;;16.27;8.68;;;5.10;99.90;;;;;;5135408;27;20035;-75
2021/12/13 06:18:58;;;;;;;16.88;8.48;;;5.10;99.90;;;;;;5135420;27;20066;-74
2021/12/13 06:21:33;;;;;;;15.32;8.80;;;5.10;99.90;;;;;;5135424;27;20019;-77
2021/12/13 06:23:59;;;;;;;13.68;8.57;;;5.10;99.90;;;;;;5135747;27;20376;-75
2021/12/13 06:26:30;;;;;;;13.85;8.65;;;5.20;99.90;;;;;;5134932;27;20468;-75
2021/12/13 06:29:00;;;;;;;14.60;8.75;;;5.10;99.90;;;;;;5135617;27;20069;-74
2021/12/13 06:31:42;;;;;;;14.80;8.60;;;5.10;99.90;;;;;;5134350;27;20023;-74
2021/12/13 06:34:12;;;;;;;16.38;9.00;;;5.10;99.90;;;;;;5135391;27;20023;-76
2021/12/13 06:36:41;;;;;;;15.07;8.57;;;5.10;99.90;;;;;;5135805;27;20088;-76
2021/12/13 06:39:12;;;;;;;15.70;8.90;;;5.20;99.90;;;;;;5134952;27;20528;-73
2021/12/13 06:41:42;;;;;;;16.70;8.75;;;5.20;99.90;;;;;;5135322;27;20067;-80
2021/12/13 06:44:15;;;;;;;11.93;8.95;;;5.20;99.90;;;;;;5116097;27;20035;-77
2021/12/13 06:46:49;;;;;;;11.40;7.85;;;5.20;99.90;;;;;;5134934;27;20103;-83
2021/12/13 06:49:39;;;;;;;13.50;8.07;;;5.20;99.90;;;;;;5134976;27;20023;-78
2021/12/13 06:52:08;;;;;;;11.73;7.60;;;5.20;99.90;;;;;;5122732;27;20406;-73
2021/12/13 06:54:44;;;;;;;11.48;7.45;;;5.20;99.90;;;;;;5134838;27;20462;-73
2021/12/13 06:57:12;;;;;;;13.63;7.57;;;5.20;99.90;;;;;;5134255;27;20031;-70
2021/12/13 06:59:51;;;;;;;13.30;8.65;;;5.20;99.90;;;;;;5135252;27;20034;-73
2021/12/13 07:02:26;;;;;;;15.10;8.80;;;5.20;99.90;;;;;;5134501;27;20061;-73
2021/12/13 07:05:34;;;;;;;16.83;9.57;;;5.20;99.90;;;;;;5134811;27;20011;-73
2021/12/13 07:08:25;;;;;;;17.52;9.48;;;5.20;99.90;;;;;;5121972;27;20518;-73
2021/12/13 07:10:55;;;;;;;14.50;8.95;;;5.20;99.90;;;;;;5134854;27;20027;-73
2021/12/13 07:13:36;;;;;;;15.10;8.98;;;5.30;99.90;;;;;;5134223;27;20030;-73
2021/12/13 07:16:07;;;;;;;15.23;9.52;;;5.30;99.90;;;;;;5134554;27;20126;-73
2021/12/13 07:18:58;;;;;;;12.27;9.25;;;5.30;99.90;;;;;;5134493;27;20540;-73
2021/12/13 07:21:55;;;;;;;22.38;11.07;;;5.30;99.90;;;;;;5131817;27;20027;-83
2021/12/13 07:24:44;;;;;;;18.65;10.48;;;5.30;99.90;;;;;;5135470;27;20118;-80
2021/12/13 07:27:17;;;;;;;18.08;10.02;;;5.30;99.90;;;;;;5120367;27;20027;-75
2021/12/13 07:29:59;;;;;;;14.80;9.40;;;5.30;99.90;;;;;;5134289;27;20052;-75
2021/12/13 07:32:34;;;;;;;13.25;8.73;;;5.30;99.90;;;;;;5133301;27;20030;-77
2021/12/13 07:35:13;;;;;;;18.67;9.23;;;5.30;99.90;;;;;;5134405;27;20027;-75
2021/12/13 07:37:44;;;;;;;13.30;7.60;;;5.30;99.90;;;;;;5133550;27;20061;-75
2021/12/13 07:40:24;;;;;;;18.60;9.57;;;5.30;99.90;;;;;;5134247;27;20019;-75
2021/12/13 07:43:13;;;;;;;16.77;9.43;;;5.30;99.90;;;;;;5134508;27;20502;-72
2021/12/13 07:45:47;;;;;;;17.90;9.60;;;5.40;99.90;;;;;;5134053;27;20066;-72
2021/12/13 07:48:23;;;;;;;17.75;9.52;;;5.50;99.90;;;;;;5133458;27;20061;-73
2021/12/13 07:51:28;;;;;;;13.20;8.65;;;5.50;99.90;;;;;;5133874;27;20464;-72
2021/12/13 07:53:59;;;;;;;13.82;9.27;;;5.60;99.90;;;;;;5113304;28;20024;-73
2021/12/13 07:56:37;;;;;;;16.95;10.13;;;5.70;99.90;;;;;;5112754;28;20081;-72
2021/12/13 07:59:16;;;;;;;18.48;10.55;;;5.60;99.90;;;;;;5113246;28;20024;-72
2021/12/13 08:02:08;;;;;;;22.02;10.85;;;5.60;99.90;;;;;;5113114;28;20023;-73
2021/12/13 08:04:49;;;;;;;18.83;10.50;;;5.60;99.90;;;;;;5117413;27;20030;-73
2021/12/13 08:07:19;;;;;;;17.98;10.65;;;5.70;99.90;;;;;;5130787;27;20046;-73
2021/12/13 08:10:07;;;;;;;20.25;11.05;;;5.70;99.90;;;;;;5133689;27;20051;-72
2021/12/13 08:12:40;;;;;;;20.80;10.45;;;5.80;99.90;;;;;;5132152;27;20399;-72
2021/12/13 08:15:17;;;;;;;18.77;9.98;;;5.80;99.90;;;;;;5112447;28;20032;-72
2021/12/13 08:17:56;;;;;;;16.58;9.18;;;5.80;99.90;;;;;;5112147;28;20065;-72
2021/12/13 08:20:26;;;;;;;16.38;10.07;;;5.80;99.90;;;;;;5112194;28;20027;-73
2021/12/13 08:22:54;;;;;;;15.73;9.95;;;5.90;99.90;;;;;;5126983;27;20468;-72
2021/12/13 08:25:27;;;;;;;18.08;10.07;;;5.90;99.90;;;;;;5132237;27;20039;-73
2021/12/13 08:28:02;;;;;;;18.38;10.38;;;6.00;99.90;;;;;;5133094;27;20031;-72
2021/12/13 08:30:44;;;;;;;15.90;9.50;;;6.10;99.90;;;;;;5132254;27;20054;-73
2021/12/13 08:33:19;;;;;;;16.67;10.15;;;6.10;99.90;;;;;;5132775;27;20045;-73
2021/12/13 08:36:01;;;;;;;16.20;9.85;;;6.20;99.90;;;;;;5132645;27;20475;-71
2021/12/13 08:38:36;;;;;;;17.60;9.68;;;6.20;99.90;;;;;;5102397;28;20020;-70
2021/12/13 08:41:36;;;;;;;17.17;10.45;;;6.30;99.90;;;;;;5113026;28;20028;-71
2021/12/13 08:44:05;;;;;;;18.33;10.93;;;6.40;99.90;;;;;;5094717;28;20423;-73
2021/12/13 08:46:36;;;;;;;13.20;8.80;;;6.50;99.90;;;;;;5111316;28;20117;-74
2021/12/13 08:49:18;;;;;;;18.67;9.88;;;6.50;99.90;;;;;;5111268;28;20016;-73
2021/12/13 08:52:15;;;;;;;17.40;9.38;;;6.60;99.90;;;;;;5117793;28;20027;-71
2021/12/13 08:54:51;;;;;;;14.07;9.10;;;6.70;99.90;;;;;;5133084;28;20104;-73
2021/12/13 08:57:38;;;;;;;14.60;9.40;;;6.80;99.90;;;;;;5132355;27;20088;-72
2021/12/13 09:00:24;;;;;;;14.20;9.95;;;6.80;99.90;;;;;;5132987;27;20023;-71
2021/12/13 09:02:58;;;;;;;18.80;10.60;;;6.90;99.90;;;;;;5136448;27;20023;-71
2021/12/13 09:05:35;;;;;;;15.95;10.40;;;6.90;99.90;;;;;;5132467;28;20026;-73
2021/12/13 09:08:09;;;;;;;15.77;11.48;;;7.00;99.90;;;;;;5131611;28;20066;-74
2021/12/13 09:10:56;;;;;;;19.38;11.75;;;7.10;99.90;;;;;;5130999;27;20357;-74
2021/12/13 09:13:40;;;;;;;17.77;10.88;;;7.10;99.90;;;;;;5131358;28;20386;-74
2021/12/13 09:16:08;;;;;;;21.35;11.02;;;7.20;99.90;;;;;;5131027;28;20500;-74
2021/12/13 09:18:34;;;;;;;17.55;10.77;;;7.30;99.90;;;;;;5130921;27;20112;-72
2021/12/13 09:21:00;;;;;;;19.27;10.82;;;7.30;99.90;;;;;;5131299;28;20028;-73
2021/12/13 09:23:31;;;;;;;19.45;11.65;;;7.30;99.90;;;;;;5131364;28;20543;-74
2021/12/13 09:26:10;;;;;;;17.60;9.60;;;7.40;99.90;;;;;;5132718;28;20027;-74
2021/12/13 09:28:48;;;;;;;15.80;10.60;;;7.50;99.90;;;;;;5132327;27;20047;-74
2021/12/13 09:31:28;;;;;;;20.70;11.45;;;7.60;99.90;;;;;;5132136;27;20023;-73
2021/12/13 09:33:59;;;;;;;15.05;9.27;;;7.60;99.90;;;;;;5132498;28;20027;-71
2021/12/13 09:36:32;;;;;;;19.33;10.10;;;7.80;99.90;;;;;;5130550;27;20482;-73
2021/12/13 09:39:17;;;;;;;17.15;10.02;;;7.80;99.90;;;;;;5132534;27;20173;-73
2021/12/13 09:41:58;;;;;;;18.10;10.38;;;7.80;99.90;;;;;;5131432;28;20088;-74
2021/12/13 09:44:54;;;;;;;19.70;11.38;;;7.80;99.90;;;;;;5131723;28;20035;-73
2021/12/13 09:47:31;;;;;;;19.20;10.48;;;7.90;99.90;;;;;;5123520;28;20386;-74
2021/12/13 09:49:57;;;;;;;14.25;10.02;;;8.00;99.90;;;;;;5132342;28;20069;-74
2021/12/13 09:52:33;;;;;;;14.95;9.50;;;8.10;99.90;;;;;;5131023;28;20047;-73
2021/12/13 09:55:12;;;;;;;14.50;9.55;;;8.20;99.90;;;;;;5134875;27;20034;-73
2021/12/13 09:57:59;;;;;;;14.68;9.35;;;8.20;99.90;;;;;;5135625;27;20035;-74
2021/12/13 10:00:51;;;;;;;15.77;8.60;;;8.30;99.90;;;;;;5135661;27;20424;-73
2021/12/13 10:03:25;;;;;;;15.32;9.27;;;8.30;99.90;;;;;;5136043;27;20019;-73
2021/12/13 10:05:55;;;;;;;12.68;7.82;;;8.40;99.90;;;;;;5135299;27;20103;-73
2021/12/13 10:08:25;;;;;;;12.67;8.13;;;8.50;99.90;;;;;;5134990;27;20039;-74
2021/12/13 10:11:25;;;;;;;13.25;7.60;;;8.50;99.90;;;;;;5135603;27;20106;-73
2021/12/13 10:13:52;;;;;;;13.45;7.75;;;8.50;99.90;;;;;;5115984;27;20484;-72
2021/12/13 10:16:31;;;;;;;10.75;7.22;;;8.60;99.90;;;;;;5134999;27;20039;-72
2021/12/13 10:18:59;;;;;;;10.30;6.32;;;8.70;99.90;;;;;;5135314;27;20027;-72
2021/12/13 10:21:30;;;;;;;10.77;6.30;;;8.70;99.90;;;;;;5134540;27;20967;-72
2021/12/13 10:24:09;;;;;;;10.90;7.03;;;8.70;99.90;;;;;;5134959;27;20398;-72
2021/12/13 10:26:40;;;;;;;15.27;8.07;;;8.80;99.90;;;;;;5134865;27;20039;-72
2021/12/13 10:29:10;;;;;;;11.95;8.05;;;8.90;99.90;;;;;;5135405;27;20031;-72
2021/12/13 10:31:45;;;;;;;20.52;10.85;;;9.00;99.90;;;;;;5134471;27;20372;-72
2021/12/13 10:34:18;;;;;;;21.13;11.73;;;9.10;99.90;;;;;;5126909;27;20064;-72
2021/12/13 10:36:50;;;;;;;20.70;11.55;;;9.10;99.90;;;;;;5135755;27;20035;-72
2021/12/13 10:39:28;;;;;;;22.40;11.57;;;9.10;99.90;;;;;;5135856;27;20027;-71
2021/12/13 10:41:56;;;;;;;25.17;11.80;;;9.00;99.90;;;;;;5135161;27;20389;-72
2021/12/13 10:44:28;;;;;;;18.10;10.98;;;9.00;99.90;;;;;;5121654;27;20055;-71
2021/12/13 10:47:06;;;;;;;23.92;12.40;;;9.00;99.90;;;;;;5131232;27;20096;-72
2021/12/13 10:49:41;;;;;;;19.58;11.70;;;8.90;99.90;;;;;;5133789;27;20023;-72
2021/12/13 10:52:14;;;;;;;21.88;12.07;;;9.00;99.90;;;;;;5134625;27;20027;-72
2021/12/13 10:54:46;;;;;;;25.85;12.95;;;8.90;99.90;;;;;;5133323;27;20106;-72
2021/12/13 10:57:27;;;;;;;26.45;12.82;;;8.90;99.90;;;;;;5134848;27;20417;-76
2021/12/13 10:59:55;;;;;;;25.83;12.77;;;8.90;99.90;;;;;;5132344;27;20023;-74
2021/12/13 11:02:26;;;;;;;22.08;11.77;;;8.90;99.90;;;;;;5134203;27;20027;-75
2021/12/13 11:04:59;;;;;;;25.77;12.45;;;8.90;99.90;;;;;;5134016;27;20102;-82
2021/12/13 11:07:24;;;;;;;33.92;15.10;;;8.90;99.90;;;;;;5134376;27;20058;-82
2021/12/13 11:09:54;;;;;;;27.73;13.70;;;8.90;99.90;;;;;;5133698;27;20510;-78
2021/12/13 11:12:24;;;;;;;23.33;12.52;;;9.00;99.90;;;;;;5128380;27;20095;-74
2021/12/13 11:14:55;;;;;;;29.00;12.95;;;9.00;99.90;;;;;;5131635;27;20139;-74
2021/12/13 11:17:25;;;;;;;28.85;13.57;;;9.00;99.90;;;;;;5132396;27;20062;-74
2021/12/13 11:19:56;;;;;;;22.05;12.43;;;9.10;99.90;;;;;;5132967;27;20094;-74
2021/12/13 11:22:29;;;;;;;21.10;12.30;;;9.20;99.90;;;;;;5133446;27;20455;-74
2021/12/13 11:25:00;;;;;;;20.65;11.45;;;9.20;99.90;;;;;;5133238;27;20041;-75
2021/12/13 11:27:31;;;;;;;19.02;11.18;;;9.20;99.90;;;;;;5134064;27;20023;-75
2021/12/13 11:29:58;;;;;;;20.30;12.23;;;9.20;99.90;;;;;;5134225;27;20150;-74
2021/12/13 11:32:39;;;;;;;21.45;11.02;;;9.20;99.90;;;;;;5132695;27;20471;-75
2021/12/13 11:35:21;;;;;;;19.52;10.75;;;9.10;99.90;;;;;;5109440;27;20120;-74
2021/12/13 11:38:26;;;;;;;17.38;10.65;;;9.10;99.90;;;;;;5112123;28;20107;-76
2021/12/13 11:41:40;;;;;;;19.92;9.82;;;9.10;99.90;;;;;;5114820;27;20019;-74
2021/12/13 11:44:30;;;;;;;17.52;9.43;;;9.10;99.90;;;;;;5060133;27;20525;-76
2021/12/13 11:47:11;;;;;;;12.75;9.13;;;9.10;99.90;;;;;;5131741;27;20051;-74
2021/12/13 11:49:53;;;;;;;19.00;8.85;;;9.30;99.90;;;;;;5132633;27;20475;-75
2021/12/13 11:52:56;;;;;;;14.43;8.38;;;9.40;99.90;;;;;;5133389;27;20031;-76
2021/12/13 11:55:59;;;;;;;16.35;11.18;;;9.40;99.90;;;;;;5133573;27;20027;-75
2021/12/13 11:58:45;;;;;;;17.38;10.10;;;9.50;99.90;;;;;;5133033;27;20048;-74
2021/12/13 12:01:30;;;;;;;15.32;9.45;;;9.50;99.90;;;;;;5133664;27;20103;-74
2021/12/13 12:04:07;;;;;;;17.23;9.70;;;9.50;99.90;;;;;;5133670;27;20031;-75
2021/12/13 12:06:55;;;;;;;19.35;9.52;;;9.60;99.90;;;;;;5118271;27;20059;-75
2021/12/13 12:09:39;;;;;;;15.60;8.88;;;9.60;99.90;;;;;;5132771;27;20023;-76
2021/12/13 12:12:23;;;;;;;14.85;9.40;;;9.60;99.90;;;;;;5127369;27;20027;-76
2021/12/13 12:14:59;;;;;;;14.43;10.50;;;9.60;99.90;;;;;;5112209;28;20320;-75
2021/12/13 12:17:25;;;;;;;16.85;10.75;;;9.50;99.90;;;;;;5108681;27;20032;-76
2021/12/13 12:19:51;;;;;;;18.75;11.10;;;9.50;99.90;;;;;;5113376;28;20032;-73
2021/12/13 12:22:20;;;;;;;17.17;10.20;;;9.50;99.90;;;;;;5110625;27;20397;-73
2021/12/13 12:24:50;;;;;;;17.15;11.27;;;9.50;99.90;;;;;;5126102;27;20445;-75
2021/12/13 12:27:26;;;;;;;19.23;10.63;;;9.50;99.90;;;;;;5133264;27;20034;-74
2021/12/13 12:29:53;;;;;;;19.17;11.40;;;9.50;99.90;;;;;;5131367;27;20027;-76
2021/12/13 12:32:27;;;;;;;16.92;11.48;;;9.50;99.90;;;;;;5119756;27;20019;-73
2021/12/13 12:35:11;;;;;;;17.63;10.45;;;9.50;99.90;;;;;;5113373;28;20016;-73
2021/12/13 12:38:03;;;;;;;18.83;11.75;;;9.40;99.90;;;;;;5127735;27;20035;-73
2021/12/13 12:41:14;;;;;;;19.70;12.18;;;9.40;99.90;;;;;;5133379;27;20387;-73
2021/12/13 12:43:52;;;;;;;21.65;12.15;;;9.40;99.90;;;;;;5133596;27;20062;-76
2021/12/13 12:46:19;;;;;;;19.48;12.02;;;9.40;99.90;;;;;;5134208;27;20144;-73
2021/12/13 12:48:54;;;;;;;22.10;12.80;;;9.30;99.90;;;;;;5116017;27;20481;-74
2021/12/13 12:51:22;;;;;;;19.70;11.93;;;9.30;99.90;;;;;;5132694;27;20027;-74
2021/12/13 12:54:04;;;;;;;21.45;11.90;;;9.30;99.90;;;;;;5131646;27;20066;-75
2021/12/13 12:56:57;;;;;;;23.02;13.05;;;9.40;99.90;;;;;;5133208;27;20036;-75
2021/12/13 12:59:27;;;;;;;20.10;12.82;;;9.40;99.90;;;;;;5129904;28;20041;-75
2021/12/13 13:01:59;;;;;;;17.00;11.57;;;9.40;99.90;;;;;;5131130;27;20027;-75
2021/12/13 13:04:36;;;;;;;19.75;11.70;;;9.40;99.90;;;;;;5131765;27;20107;-74
2021/12/13 13:07:28;;;;;;;14.60;9.82;;;9.40;99.90;;;;;;5132086;28;20039;-74
2021/12/13 13:10:25;;;;;;;17.60;10.98;;;9.30;99.90;;;;;;5120659;28;20043;-74
2021/12/13 13:13:11;;;;;;;21.52;11.50;;;9.30;99.90;;;;;;5132237;27;20110;-74
2021/12/13 13:15:49;;;;;;;17.52;11.15;;;9.30;99.90;;;;;;5131984;28;20483;-74
2021/12/13 13:18:23;;;;;;;15.63;10.35;;;9.20;99.90;;;;;;5112350;28;20036;-74
2021/12/13 13:20:57;;;;;;;12.25;6.68;;;9.30;99.90;;;;;;5111499;28;20102;-74
2021/12/13 13:23:26;;;;;;;10.43;7.07;;;9.20;99.90;;;;;;5129098;28;20043;-74
2021/12/13 13:25:58;;;;;;;13.85;8.85;;;9.20;99.90;;;;;;5131381;27;20058;-75
2021/12/13 13:28:30;;;;;;;18.63;11.30;;;9.20;99.90;;;;;;5132453;27;20096;-74
2021/12/13 13:31:21;;;;;;;16.23;10.13;;;9.20;99.90;;;;;;5123850;27;20046;-75
2021/12/13 13:34:09;;;;;;;16.00;9.85;;;9.20;99.90;;;;;;5117044;28;20487;-75
2021/12/13 13:36:46;;;;;;;17.92;10.23;;;9.20;99.90;;;;;;5123004;27;20460;-74
2021/12/13 13:39:18;;;;;;;17.45;10.73;;;9.20;99.90;;;;;;5136622;27;20407;-74